createdAt,value
2023-02-09T00:02:44.774Z,3.87
2023-02-09T00:07:49.836Z,3.37
2023-02-09T00:13:10.685Z,3.23
2023-02-09T00:18:14.049Z,2.80
2023-02-09T00:23:18.893Z,2.60
2023-02-09T00:28:22.856Z,3.80
2023-02-09T00:33:26.573Z,3.77
2023-02-09T00:38:31.447Z,3.10
2023-02-09T00:43:35.355Z,3.53
2023-02-09T00:48:38.870Z,3.63
2023-02-09T00:53:43.828Z,3.40
2023-02-09T00:58:47.328Z,3.20
2023-02-09T01:03:50.694Z,2.97
2023-02-09T01:08:55.647Z,3.27
2023-02-09T01:14:00.411Z,2.77
2023-02-09T01:19:05.151Z,3.13
2023-02-09T01:24:14.656Z,3.50
2023-02-09T01:29:20.354Z,3.60
2023-02-09T01:34:23.812Z,2.87
2023-02-09T01:39:28.751Z,3.67
2023-02-09T01:45:07.480Z,3.63
2023-02-09T01:50:11.350Z,3.87
2023-02-09T01:55:19.253Z,3.60
2023-02-09T02:00:23.859Z,3.57
2023-02-09T02:05:29.464Z,3.43
2023-02-09T02:10:34.613Z,3.87
2023-02-09T02:15:48.202Z,3.40
2023-02-09T02:21:25.234Z,3.87
2023-02-09T02:26:55.737Z,3.83
2023-02-09T02:32:27.529Z,3.50
2023-02-09T02:37:46.564Z,2.70
2023-02-09T02:42:56.110Z,4.30
2023-02-09T02:48:09.319Z,4.37
2023-02-09T02:53:14.963Z,3.93
2023-02-09T02:58:20.921Z,3.67
2023-02-09T03:03:31.311Z,3.77
2023-02-09T03:08:48.825Z,4.07
2023-02-09T03:14:12.252Z,4.13
2023-02-09T03:19:31.475Z,3.60
2023-02-09T03:24:41.403Z,4.27
2023-02-09T03:29:47.297Z,4.00
2023-02-09T03:34:53.026Z,4.20
2023-02-09T03:39:56.550Z,4.70
2023-02-09T03:44:59.989Z,4.70
2023-02-09T03:50:06.969Z,4.20
2023-02-09T03:55:10.545Z,4.70
2023-02-09T04:00:15.391Z,4.60
2023-02-09T04:05:20.489Z,4.43
2023-02-09T04:10:24.110Z,4.13
2023-02-09T04:15:27.529Z,4.00
2023-02-09T04:20:32.457Z,4.00
2023-02-09T04:25:35.929Z,4.20
2023-02-09T04:30:39.390Z,4.47
2023-02-09T04:35:45.724Z,4.30
2023-02-09T04:40:49.911Z,3.97
2023-02-09T04:45:53.399Z,4.20
2023-02-09T04:50:58.532Z,4.27
2023-02-09T04:56:02.061Z,3.73
2023-02-09T05:01:06.029Z,3.40
2023-02-09T05:06:11.020Z,3.40
2023-02-09T05:11:14.527Z,3.90
2023-02-09T05:16:18.819Z,4.30
2023-02-09T05:21:23.670Z,3.67
2023-02-09T05:26:27.120Z,3.77
2023-02-09T05:31:30.665Z,3.57
2023-02-09T05:36:35.502Z,3.80
2023-02-09T05:41:56.339Z,3.30
2023-02-09T05:46:59.632Z,3.27
2023-02-09T05:52:04.686Z,3.07
2023-02-09T05:57:08.437Z,3.37
2023-02-09T06:02:12.585Z,2.70
2023-02-09T06:07:17.383Z,3.20
2023-02-09T06:12:20.737Z,2.80
2023-02-09T06:17:24.062Z,2.93
2023-02-09T06:22:29.357Z,2.80
2023-02-09T06:27:32.721Z,3.10
2023-02-09T06:32:36.040Z,2.90
2023-02-09T06:37:40.802Z,2.60
2023-02-09T06:42:46.878Z,3.53
2023-02-09T06:47:50.172Z,3.07
2023-02-09T06:52:54.957Z,2.40
2023-02-09T06:57:58.590Z,2.80
2023-02-09T07:03:02.015Z,3.10
2023-02-09T07:08:07.008Z,3.00
2023-02-09T07:13:10.292Z,2.93
2023-02-09T07:18:13.570Z,2.97
2023-02-09T07:23:18.291Z,3.10
2023-02-09T07:28:22.264Z,3.20
2023-02-09T07:33:25.642Z,3.10
2023-02-09T07:38:30.474Z,3.70
2023-02-09T07:43:34.639Z,3.90
2023-02-09T07:48:38.329Z,4.57
2023-02-09T07:53:43.119Z,4.00
2023-02-09T07:58:46.542Z,3.63
2023-02-09T08:03:51.641Z,3.93
2023-02-09T08:08:56.683Z,4.03
2023-02-09T08:14:03.195Z,4.40
2023-02-09T08:19:10.895Z,4.13
2023-02-09T08:24:17.434Z,4.50
2023-02-09T08:29:20.770Z,4.80
2023-02-09T08:34:24.754Z,4.57
2023-02-09T08:39:30.468Z,4.50
2023-02-09T08:44:33.957Z,6.07
2023-02-09T08:49:37.629Z,4.97
2023-02-09T08:54:42.443Z,4.77
2023-02-09T08:59:45.762Z,4.43
2023-02-09T09:04:49.214Z,5.07
2023-02-09T09:09:53.996Z,5.10
2023-02-09T09:14:57.947Z,5.20
2023-02-09T09:20:01.289Z,3.83
2023-02-09T09:25:06.682Z,4.20
2023-02-09T09:30:11.042Z,3.33
2023-02-09T09:35:14.380Z,2.90
2023-02-09T09:40:22.624Z,2.67
2023-02-09T09:45:29.389Z,2.53
2023-02-09T09:50:37.781Z,2.37
2023-02-09T09:55:42.684Z,2.43
2023-02-09T10:00:46.850Z,2.40
2023-02-09T10:05:52.238Z,1.90
2023-02-09T10:11:01.646Z,1.70
2023-02-09T10:16:12.143Z,1.50
2023-02-09T10:21:17.632Z,1.70
2023-02-09T10:26:25.662Z,1.60
2023-02-09T10:31:34.380Z,1.70
2023-02-09T10:36:47.221Z,1.70
2023-02-09T10:41:53.806Z,1.90
2023-02-09T10:47:11.635Z,1.60
2023-02-09T10:52:19.430Z,1.63
2023-02-09T10:57:28.178Z,1.57
2023-02-09T11:02:36.643Z,1.30
2023-02-09T11:07:43.678Z,1.80
2023-02-09T11:12:48.572Z,1.53
2023-02-09T11:17:54.404Z,1.77
2023-02-09T11:23:25.600Z,1.40
2023-02-09T11:28:42.234Z,1.50
2023-02-09T11:33:54.601Z,1.70
2023-02-09T11:39:00.828Z,1.40
2023-02-09T11:44:07.892Z,1.50
2023-02-09T11:49:18.008Z,1.17
2023-02-09T11:54:26.274Z,1.47
2023-02-09T11:59:37.696Z,1.27
2023-02-09T12:04:47.017Z,1.40
2023-02-09T12:09:57.187Z,1.60
2023-02-09T12:15:13.216Z,1.40
2023-02-09T12:20:26.122Z,1.50
2023-02-09T12:25:51.761Z,1.63
2023-02-09T12:31:10.077Z,1.53
2023-02-09T12:36:32.178Z,1.60
2023-02-09T12:42:16.980Z,1.60
2023-02-09T12:47:58.384Z,1.60
2023-02-09T12:53:38.727Z,1.43
2023-02-09T12:58:57.339Z,1.70
2023-02-09T13:04:05.402Z,1.50
2023-02-09T13:09:16.233Z,1.50
2023-02-09T13:14:22.555Z,1.63
2023-02-09T13:19:58.382Z,1.50
2023-02-09T13:25:14.817Z,1.70
2023-02-09T13:30:27.704Z,1.43
2023-02-09T13:35:35.356Z,1.57
2023-02-09T13:40:47.726Z,1.70
2023-02-09T13:45:52.514Z,1.97
2023-02-09T13:50:58.094Z,1.10
2023-02-09T13:56:03.052Z,1.20
2023-02-09T14:01:10.381Z,1.27
2023-02-09T14:06:20.536Z,1.40
2023-02-09T14:11:41.964Z,1.30
2023-02-09T14:16:53.503Z,1.40
2023-02-09T14:21:57.406Z,1.30
2023-02-09T14:27:05.036Z,1.60
2023-02-09T14:32:32.384Z,1.40
2023-02-09T14:37:38.648Z,1.27
2023-02-09T14:48:21.884Z,1.40
2023-02-09T14:53:28.374Z,1.60
2023-02-09T14:58:33.412Z,1.50
2023-02-09T15:03:38.240Z,1.20
2023-02-09T15:08:41.958Z,1.53
2023-02-09T15:13:45.310Z,1.47
2023-02-09T15:18:50.086Z,1.20
2023-02-09T15:23:53.535Z,1.20
2023-02-09T15:28:56.859Z,1.30
2023-02-09T15:34:01.616Z,1.40
2023-02-09T15:39:08.429Z,1.20
2023-02-09T15:44:34.801Z,1.30
2023-02-09T15:49:39.811Z,1.50
2023-02-09T15:54:44.194Z,1.43
2023-02-09T15:59:49.011Z,1.70
2023-02-09T16:04:54.400Z,2.07
2023-02-09T16:09:58.159Z,1.80
2023-02-09T16:15:01.668Z,1.70
2023-02-09T16:20:07.815Z,1.60
2023-02-09T16:25:19.387Z,1.80
2023-02-09T16:30:25.738Z,1.60
2023-02-09T16:35:32.940Z,1.73
2023-02-09T16:40:42.374Z,1.77
2023-02-09T16:45:57.451Z,2.30
2023-02-09T16:51:17.036Z,2.00
2023-02-09T16:56:21.923Z,2.40
2023-02-09T17:01:26.092Z,1.27
2023-02-09T17:06:32.741Z,1.50
2023-02-09T17:11:37.554Z,1.40
2023-02-09T17:16:45.274Z,1.60
2023-02-09T17:21:51.277Z,1.70
2023-02-09T17:26:55.610Z,1.57
2023-02-09T17:32:01.224Z,1.50
2023-02-09T17:37:08.965Z,1.50
2023-02-09T17:42:24.106Z,1.63
2023-02-09T17:47:31.200Z,1.90
2023-02-09T17:52:39.337Z,1.77
2023-02-09T17:57:43.536Z,2.10
2023-02-09T18:02:48.031Z,2.30
2023-02-09T18:07:56.517Z,2.03
2023-02-09T18:13:01.029Z,1.73
2023-02-09T18:18:08.569Z,2.10
2023-02-09T18:23:17.485Z,2.00
2023-02-09T18:28:22.776Z,2.03
2023-02-09T18:33:27.404Z,2.00
2023-02-09T18:38:33.365Z,2.60
2023-02-09T18:43:40.013Z,3.17
2023-02-09T18:48:44.443Z,2.73
2023-02-09T18:53:50.838Z,2.37
2023-02-09T18:58:57.898Z,2.30
2023-02-09T19:10:22.338Z,2.27
2023-02-09T19:15:32.604Z,2.00
2023-02-09T19:20:37.032Z,2.10
2023-02-09T19:25:44.846Z,2.20
2023-02-09T19:30:50.667Z,2.53
2023-02-09T19:36:02.515Z,3.50
2023-02-09T19:41:13.186Z,3.50
2023-02-09T19:46:24.598Z,3.53
2023-02-09T19:51:30.006Z,2.40
2023-02-09T19:56:35.512Z,2.50
2023-02-09T20:01:41.538Z,2.60
2023-02-09T20:06:46.237Z,2.70
2023-02-09T20:17:00.186Z,3.00
2023-02-09T20:22:06.225Z,3.67
2023-02-09T20:27:15.114Z,2.70
2023-02-09T20:32:19.798Z,3.70
2023-02-09T20:37:24.790Z,3.37
2023-02-09T20:42:48.694Z,3.83
2023-02-09T20:47:54.418Z,3.90
2023-02-09T20:52:59.630Z,3.87
2023-02-09T20:58:05.933Z,4.50
2023-02-09T21:03:11.050Z,4.30
2023-02-09T21:08:17.085Z,4.00
2023-02-09T21:13:22.480Z,3.57
2023-02-09T21:18:27.141Z,3.87
2023-02-09T21:23:30.661Z,4.10
2023-02-09T21:28:37.047Z,4.13
2023-02-09T21:33:42.538Z,3.80
2023-02-09T21:38:47.079Z,2.97
2023-02-09T21:43:53.238Z,2.87
2023-02-09T21:48:57.547Z,2.57
2023-02-09T21:54:01.325Z,3.40
2023-02-09T21:59:06.150Z,2.67
2023-02-09T22:04:09.839Z,2.77
2023-02-09T22:09:13.329Z,2.63
2023-02-09T22:14:18.470Z,3.27
2023-02-09T22:19:22.106Z,3.50
2023-02-09T22:24:25.730Z,3.40
2023-02-09T22:29:30.971Z,3.80
2023-02-09T22:34:34.432Z,3.80
2023-02-09T22:39:37.882Z,4.33
2023-02-09T22:44:42.720Z,3.50
2023-02-09T22:49:47.143Z,3.43
2023-02-09T22:54:50.519Z,2.50
2023-02-09T22:59:55.305Z,2.23
2023-02-09T23:04:59.297Z,2.27
2023-02-09T23:10:02.681Z,2.03
2023-02-09T23:15:08.849Z,1.60
2023-02-09T23:20:12.674Z,2.00
2023-02-09T23:25:16.224Z,2.60
2023-02-09T23:30:23.473Z,3.40
2023-02-09T23:35:26.907Z,2.60
2023-02-09T23:40:30.460Z,2.43
2023-02-09T23:45:35.386Z,2.60
2023-02-09T23:50:38.911Z,2.97
2023-02-09T23:55:42.299Z,3.10
